Canandaigua, New York
Current Conditions -  °F | °C
As of 1:53 AM on Thursday 27 Nov 2014 (Local Time) from KPEO Reporting Station
Light Snow Light Snow  
Wind Chill: 22°   Ceiling: 900
Heat Index: 29°   Visibility: 3mi
Dew Point: 27°   Wind: 7mph
Humidity: 92%   Direction: 330°NNW
Pressure: 30"   Gusts: NA
Location:  42.89°N, 77.28°W
Report Text: KPEO 270653Z AUTO 33006KT 3SM -SN BR BKN009 OVC015 M02/M03 A3000 RMK AO2 CIG 006V011 SLP169 P0000 T10171028
Loading
Personal Weather Stations






























Interactive Weather Map New forecast layout! Learn more

10-Day Weather Forecast

Advertisements
Track Severe Weather on mobile